Terminal Aerodrome Forecast
Issued by NWS Wilmington, OH

Current Version | Previous Version | Text Only | Print | Product List | Glossary Off
Versions: 1 2 3 4 5 6 7 8 9 10 11 12 13 14 15 16

000
FTUS41 KILN 221400 AAA
TAFILN
TAF AMD
KILN 221453Z 2215/2312 29014G20KT P6SM SCT025 OVC050
      TEMPO 2215/2216 BKN025
     FM221600 30015KT P6SM SCT022
     FM221800 31016G24KT P6SM FEW040
     FM230000 33010KT P6SM SKC=

USA.gov is the U.S. government's official web portal to all federal, state and local government web resources and services.